sensor_id;sensor_type;location;lat;lon;timestamp;pressure;altitude;pressure_sealevel;temperature;humidity
3960;BME280;1994;48.640;8.894;2023-09-12T00:02:24;95863.66;;;20.97;72.31
3960;BME280;1994;48.640;8.894;2023-09-12T00:04:50;95863.34;;;20.98;72.53
3960;BME280;1994;48.640;8.894;2023-09-12T00:07:16;95861.97;;;21.01;72.54
3960;BME280;1994;48.640;8.894;2023-09-12T00:09:42;95867.59;;;20.86;73.12
3960;BME280;1994;48.640;8.894;2023-09-12T00:12:08;95868.94;;;20.75;74.02
3960;BME280;1994;48.640;8.894;2023-09-12T00:14:34;95863.69;;;20.75;74.24
3960;BME280;1994;48.640;8.894;2023-09-12T00:17:00;95858.41;;;20.75;74.10
3960;BME280;1994;48.640;8.894;2023-09-12T00:19:26;95857.81;;;20.78;74.41
3960;BME280;1994;48.640;8.894;2023-09-12T00:21:51;95859.38;;;20.79;74.15
3960;BME280;1994;48.640;8.894;2023-09-12T00:24:18;95854.72;;;20.76;74.44
3960;BME280;1994;48.640;8.894;2023-09-12T00:26:44;95857.22;;;20.81;73.43
3960;BME280;1994;48.640;8.894;2023-09-12T00:29:10;95851.97;;;20.81;72.93
3960;BME280;1994;48.640;8.894;2023-09-12T00:31:36;95854.72;;;20.76;73.10
3960;BME280;1994;48.640;8.894;2023-09-12T00:34:01;95854.22;;;20.74;72.75
3960;BME280;1994;48.640;8.894;2023-09-12T00:36:27;95845.88;;;20.72;72.84
3960;BME280;1994;48.640;8.894;2023-09-12T00:38:53;95846.59;;;20.64;73.07
3960;BME280;1994;48.640;8.894;2023-09-12T00:41:19;95845.66;;;20.60;73.17
3960;BME280;1994;48.640;8.894;2023-09-12T00:43:45;95845.03;;;20.63;73.38
3960;BME280;1994;48.640;8.894;2023-09-12T00:46:10;95845.66;;;20.60;73.84
3960;BME280;1994;48.640;8.894;2023-09-12T00:48:38;95847.81;;;20.58;73.93
3960;BME280;1994;48.640;8.894;2023-09-12T00:51:05;95840.41;;;20.60;73.65
3960;BME280;1994;48.640;8.894;2023-09-12T00:53:31;95839.94;;;20.66;73.85
3960;BME280;1994;48.640;8.894;2023-09-12T00:55:59;95836.03;;;20.55;74.58
3960;BME280;1994;48.640;8.894;2023-09-12T00:58:25;95838.16;;;20.45;75.72
3960;BME280;1994;48.640;8.894;2023-09-12T01:00:52;95835.66;;;20.40;75.98
3960;BME280;1994;48.640;8.894;2023-09-12T01:03:18;95833.22;;;20.52;74.91
3960;BME280;1994;48.640;8.894;2023-09-12T01:05:44;95834.97;;;20.56;74.47
3960;BME280;1994;48.640;8.894;2023-09-12T01:08:10;95827.97;;;20.52;75.36
3960;BME280;1994;48.640;8.894;2023-09-12T01:10:36;95831.09;;;20.54;75.51
3960;BME280;1994;48.640;8.894;2023-09-12T01:13:03;95827.25;;;20.60;74.58
3960;BME280;1994;48.640;8.894;2023-09-12T01:15:29;95835.13;;;20.60;74.61
3960;BME280;1994;48.640;8.894;2023-09-12T01:17:56;95836.69;;;20.61;74.39
3960;BME280;1994;48.640;8.894;2023-09-12T01:20:31;95835.72;;;20.57;75.04
3960;BME280;1994;48.640;8.894;2023-09-12T01:28:55;95838.22;;;20.62;75.60
3960;BME280;1994;48.640;8.894;2023-09-12T01:31:24;95839.19;;;20.66;75.28
3960;BME280;1994;48.640;8.894;2023-09-12T01:33:55;95843.66;;;20.65;75.69
3960;BME280;1994;48.640;8.894;2023-09-12T01:36:21;95836.25;;;20.67;76.02
3960;BME280;1994;48.640;8.894;2023-09-12T01:38:46;95841.03;;;20.65;76.08
3960;BME280;1994;48.640;8.894;2023-09-12T01:41:12;95837.50;;;20.70;75.59
3960;BME280;1994;48.640;8.894;2023-09-12T01:43:38;95836.84;;;20.64;75.95
3960;BME280;1994;48.640;8.894;2023-09-12T01:46:05;95836.06;;;20.64;76.31
3960;BME280;1994;48.640;8.894;2023-09-12T01:48:35;95832.38;;;20.65;76.26
3960;BME280;1994;48.640;8.894;2023-09-12T01:51:02;95835.13;;;20.60;76.46
3960;BME280;1994;48.640;8.894;2023-09-12T01:53:29;95837.28;;;20.58;76.72
3960;BME280;1994;48.640;8.894;2023-09-12T01:55:57;95837.91;;;20.55;76.59
3960;BME280;1994;48.640;8.894;2023-09-12T01:58:25;95833.59;;;20.59;76.73
3960;BME280;1994;48.640;8.894;2023-09-12T02:00:51;95829.50;;;20.53;77.23
3960;BME280;1994;48.640;8.894;2023-09-12T02:03:17;95829.50;;;20.53;77.27
3960;BME280;1994;48.640;8.894;2023-09-12T02:05:43;95831.09;;;20.54;77.36
3960;BME280;1994;48.640;8.894;2023-09-12T02:08:09;95831.84;;;20.54;77.22
3960;BME280;1994;48.640;8.894;2023-09-12T02:10:35;95834.59;;;20.49;77.59
3960;BME280;1994;48.640;8.894;2023-09-12T02:13:00;95832.56;;;20.38;78.07
3960;BME280;1994;48.640;8.894;2023-09-12T02:15:26;95823.09;;;20.37;78.33
3960;BME280;1994;48.640;8.894;2023-09-12T02:17:52;95822.28;;;20.28;78.84
3960;BME280;1994;48.640;8.894;2023-09-12T02:20:18;95830.16;;;20.28;78.76
3960;BME280;1994;48.640;8.894;2023-09-12T02:22:45;95824.41;;;20.26;78.87
3960;BME280;1994;48.640;8.894;2023-09-12T02:25:11;95822.22;;;20.19;79.15
3960;BME280;1994;48.640;8.894;2023-09-12T02:27:36;95826.34;;;20.12;79.56
3960;BME280;1994;48.640;8.894;2023-09-12T02:30:03;95822.19;;;20.11;79.58
3960;BME280;1994;48.640;8.894;2023-09-12T02:32:29;95821.22;;;20.07;79.77
3960;BME280;1994;48.640;8.894;2023-09-12T02:34:55;95819.13;;;20.04;80.02
3960;BME280;1994;48.640;8.894;2023-09-12T02:37:22;95817.72;;;19.98;80.16
3960;BME280;1994;48.640;8.894;2023-09-12T02:39:48;95825.13;;;19.96;80.33
3960;BME280;1994;48.640;8.894;2023-09-12T02:42:14;95824.16;;;19.92;80.61
3960;BME280;1994;48.640;8.894;2023-09-12T02:44:40;95815.03;;;19.89;80.53
3960;BME280;1994;48.640;8.894;2023-09-12T02:47:06;95821.06;;;19.90;80.70
3960;BME280;1994;48.640;8.894;2023-09-12T02:49:31;95822.66;;;19.77;81.44
3960;BME280;1994;48.640;8.894;2023-09-12T02:51:57;95825.00;;;19.79;81.32
3960;BME280;1994;48.640;8.894;2023-09-12T02:54:23;95817.59;;;19.81;81.38
3960;BME280;1994;48.640;8.894;2023-09-12T02:56:49;95819.13;;;19.82;81.16
3960;BME280;1994;48.640;8.894;2023-09-12T02:59:14;95817.00;;;19.84;80.96
3960;BME280;1994;48.640;8.894;2023-09-12T03:01:40;95820.34;;;19.76;81.24
3960;BME280;1994;48.640;8.894;2023-09-12T03:04:06;95810.03;;;19.66;81.62
3960;BME280;1994;48.640;8.894;2023-09-12T03:06:32;95817.47;;;19.64;81.79
3960;BME280;1994;48.640;8.894;2023-09-12T03:08:58;95810.47;;;19.59;82.09
3960;BME280;1994;48.640;8.894;2023-09-12T03:11:26;95808.50;;;19.65;81.86
3960;BME280;1994;48.640;8.894;2023-09-12T03:13:55;95804.31;;;19.64;81.66
3960;BME280;1994;48.640;8.894;2023-09-12T03:16:21;95815.31;;;19.66;81.49
3960;BME280;1994;48.640;8.894;2023-09-12T03:18:48;95829.59;;;19.38;82.98
3960;BME280;1994;48.640;8.894;2023-09-12T03:21:14;95818.34;;;19.24;83.75
3960;BME280;1994;48.640;8.894;2023-09-12T03:23:40;95817.25;;;19.11;84.52
3960;BME280;1994;48.640;8.894;2023-09-12T03:26:06;95812.19;;;19.15;84.47
3960;BME280;1994;48.640;8.894;2023-09-12T03:28:32;95817.44;;;19.15;84.48
3960;BME280;1994;48.640;8.894;2023-09-12T03:31:13;95814.16;;;19.23;84.11
3960;BME280;1994;48.640;8.894;2023-09-12T03:33:41;95811.53;;;19.23;84.15
3960;BME280;1994;48.640;8.894;2023-09-12T03:36:08;95804.13;;;19.25;84.08
3960;BME280;1994;48.640;8.894;2023-09-12T03:38:35;95804.72;;;19.22;84.53
3960;BME280;1994;48.640;8.894;2023-09-12T03:41:06;95795.53;;;19.33;84.23
3960;BME280;1994;48.640;8.894;2023-09-12T03:43:33;95794.00;;;19.32;84.03
3960;BME280;1994;48.640;8.894;2023-09-12T03:45:59;95794.97;;;19.36;83.97
3960;BME280;1994;48.640;8.894;2023-09-12T03:48:25;95805.47;;;19.36;83.94
3960;BME280;1994;48.640;8.894;2023-09-12T03:50:51;95795.44;;;19.38;83.56
3960;BME280;1994;48.640;8.894;2023-09-12T03:53:17;95796.53;;;19.37;83.89
3960;BME280;1994;48.640;8.894;2023-09-12T03:55:43;95794.50;;;19.34;83.97
3960;BME280;1994;48.640;8.894;2023-09-12T03:58:09;95789.53;;;19.32;83.92
3960;BME280;1994;48.640;8.894;2023-09-12T04:00:35;95797.69;;;19.31;84.05
3960;BME280;1994;48.640;8.894;2023-09-12T04:03:01;95795.53;;;19.33;84.04
3960;BME280;1994;48.640;8.894;2023-09-12T04:05:27;95794.97;;;19.36;83.95
3960;BME280;1994;48.640;8.894;2023-09-12T04:07:52;95793.97;;;19.45;83.24
3960;BME280;1994;48.640;8.894;2023-09-12T04:10:21;95793.78;;;19.42;83.45
3960;BME280;1994;48.640;8.894;2023-09-12T04:12:47;95789.00;;;19.44;83.18
3960;BME280;1994;48.640;8.894;2023-09-12T04:15:13;95787.94;;;19.45;83.45
3960;BME280;1994;48.640;8.894;2023-09-12T04:17:38;95796.31;;;19.47;83.42
3960;BME280;1994;48.640;8.894;2023-09-12T04:20:05;95791.53;;;19.49;83.36
3960;BME280;1994;48.640;8.894;2023-09-12T04:22:31;95790.47;;;19.50;83.32
3960;BME280;1994;48.640;8.894;2023-09-12T04:24:57;95786.66;;;19.56;82.98
3960;BME280;1994;48.640;8.894;2023-09-12T04:27:23;95782.84;;;19.62;82.53
3960;BME280;1994;48.640;8.894;2023-09-12T04:29:48;95785.34;;;19.67;82.11
3960;BME280;1994;48.640;8.894;2023-09-12T04:32:14;95783.78;;;19.66;82.21
3960;BME280;1994;48.640;8.894;2023-09-12T04:34:44;95787.84;;;19.72;82.04
3960;BME280;1994;48.640;8.894;2023-09-12T04:37:10;95790.16;;;19.73;82.07
3960;BME280;1994;48.640;8.894;2023-09-12T04:39:36;95791.53;;;19.71;81.92
3960;BME280;1994;48.640;8.894;2023-09-12T04:42:02;95798.22;;;19.77;81.55
3960;BME280;1994;48.640;8.894;2023-09-12T04:44:34;95792.16;;;19.68;81.93
3960;BME280;1994;48.640;8.894;2023-09-12T04:47:00;95792.91;;;19.68;82.14
3960;BME280;1994;48.640;8.894;2023-09-12T04:49:27;95785.34;;;19.67;81.97
3960;BME280;1994;48.640;8.894;2023-09-12T04:51:53;95787.13;;;19.58;82.72
3960;BME280;1994;48.640;8.894;2023-09-12T04:54:19;95787.47;;;19.65;82.32
3960;BME280;1994;48.640;8.894;2023-09-12T04:56:44;95785.56;;;19.57;82.59
3960;BME280;1994;48.640;8.894;2023-09-12T04:59:10;95787.13;;;19.58;82.32
3960;BME280;1994;48.640;8.894;2023-09-12T05:01:36;95790.22;;;19.60;82.33
3960;BME280;1994;48.640;8.894;2023-09-12T05:04:02;95788.66;;;19.59;82.20
3960;BME280;1994;48.640;8.894;2023-09-12T05:06:29;95787.69;;;19.55;82.28
3960;BME280;1994;48.640;8.894;2023-09-12T05:08:56;95793.31;;;19.40;83.30
3960;BME280;1994;48.640;8.894;2023-09-12T05:11:24;95798.03;;;19.51;82.96
3960;BME280;1994;48.640;8.894;2023-09-12T05:13:51;95789.97;;;19.48;83.09
3960;BME280;1994;48.640;8.894;2023-09-12T05:16:17;95792.25;;;19.41;83.23
3960;BME280;1994;48.640;8.894;2023-09-12T05:18:42;95795.72;;;19.50;82.91
3960;BME280;1994;48.640;8.894;2023-09-12T05:21:08;95800.53;;;19.56;82.82
3960;BME280;1994;48.640;8.894;2023-09-12T05:23:34;95806.47;;;19.62;82.44
3960;BME280;1994;48.640;8.894;2023-09-12T05:26:00;95799.91;;;19.73;82.09
3960;BME280;1994;48.640;8.894;2023-09-12T05:28:27;95808.50;;;19.65;82.29
3960;BME280;1994;48.640;8.894;2023-09-12T05:30:53;95812.94;;;19.78;81.67
3960;BME280;1994;48.640;8.894;2023-09-12T05:33:19;95809.41;;;19.82;81.69
3960;BME280;1994;48.640;8.894;2023-09-12T05:35:44;95804.81;;;19.88;81.38
3960;BME280;1994;48.640;8.894;2023-09-12T05:38:11;95817.34;;;19.91;81.17
3960;BME280;1994;48.640;8.894;2023-09-12T05:40:37;95816.78;;;19.94;81.39
3960;BME280;1994;48.640;8.894;2023-09-12T05:43:03;95813.41;;;20.02;81.22
3960;BME280;1994;48.640;8.894;2023-09-12T05:45:29;95818.50;;;19.98;81.30
3960;BME280;1994;48.640;8.894;2023-09-12T05:47:56;95823.94;;;20.02;81.30
3960;BME280;1994;48.640;8.894;2023-09-12T05:50:22;95817.13;;;20.01;81.22
3960;BME280;1994;48.640;8.894;2023-09-12T05:52:48;95818.66;;;20.02;81.13
3960;BME280;1994;48.640;8.894;2023-09-12T05:55:14;95822.25;;;20.06;81.00
3960;BME280;1994;48.640;8.894;2023-09-12T05:57:41;95825.47;;;20.03;81.18
3960;BME280;1994;48.640;8.894;2023-09-12T06:00:07;95822.75;;;20.08;81.24
3960;BME280;1994;48.640;8.894;2023-09-12T06:02:38;95826.47;;;20.07;81.38
3960;BME280;1994;48.640;8.894;2023-09-12T06:05:05;95823.72;;;20.12;81.46
3960;BME280;1994;48.640;8.894;2023-09-12T06:07:32;95823.09;;;20.15;80.78
3960;BME280;1994;48.640;8.894;2023-09-12T06:09:58;95823.78;;;20.20;80.38
3960;BME280;1994;48.640;8.894;2023-09-12T06:12:24;95823.25;;;20.32;79.89
3960;BME280;1994;48.640;8.894;2023-09-12T06:14:51;95828.22;;;20.42;79.41
3960;BME280;1994;48.640;8.894;2023-09-12T06:17:18;95831.50;;;20.47;79.44
3960;BME280;1994;48.640;8.894;2023-09-12T06:19:44;95827.72;;;20.62;79.21
3960;BME280;1994;48.640;8.894;2023-09-12T06:22:10;95830.81;;;20.64;78.42
3960;BME280;1994;48.640;8.894;2023-09-12T06:24:36;95834.09;;;20.69;78.32
3960;BME280;1994;48.640;8.894;2023-09-12T06:27:01;95835.69;;;20.79;78.36
3960;BME280;1994;48.640;8.894;2023-09-12T06:29:27;95833.38;;;20.86;77.86
3960;BME280;1994;48.640;8.894;2023-09-12T06:31:53;95834.69;;;20.97;77.29
3960;BME280;1994;48.640;8.894;2023-09-12T06:34:20;95838.13;;;21.06;76.89
3960;BME280;1994;48.640;8.894;2023-09-12T06:36:46;95842.16;;;21.12;76.74
3960;BME280;1994;48.640;8.894;2023-09-12T06:39:12;95838.13;;;21.06;76.90
3960;BME280;1994;48.640;8.894;2023-09-12T06:41:37;95841.41;;;21.11;76.74
3960;BME280;1994;48.640;8.894;2023-09-12T06:44:03;95844.34;;;21.10;76.70
3960;BME280;1994;48.640;8.894;2023-09-12T06:46:30;95847.72;;;21.10;77.00
3960;BME280;1994;48.640;8.894;2023-09-12T06:48:56;95846.50;;;21.08;76.83
3960;BME280;1994;48.640;8.894;2023-09-12T06:51:25;95852.44;;;21.22;76.10
3960;BME280;1994;48.640;8.894;2023-09-12T06:53:52;95845.19;;;21.44;75.75
3960;BME280;1994;48.640;8.894;2023-09-12T06:56:18;95843.56;;;21.74;74.82
3960;BME280;1994;48.640;8.894;2023-09-12T06:58:43;95858.56;;;22.07;74.88
3960;BME280;1994;48.640;8.894;2023-09-12T07:01:09;95848.75;;;22.42;73.64
3960;BME280;1994;48.640;8.894;2023-09-12T07:03:36;95862.69;;;22.68;72.61
3960;BME280;1994;48.640;8.894;2023-09-12T07:06:02;95871.00;;;22.87;71.34
3960;BME280;1994;48.640;8.894;2023-09-12T07:08:32;95866.66;;;22.91;71.41
3960;BME280;1994;48.640;8.894;2023-09-12T07:11:01;95864.75;;;23.00;70.99
3960;BME280;1994;48.640;8.894;2023-09-12T07:13:32;95865.03;;;23.07;70.77
3960;BME280;1994;48.640;8.894;2023-09-12T07:15:58;95865.94;;;23.19;70.70
3960;BME280;1994;48.640;8.894;2023-09-12T07:18:24;95874.56;;;23.37;69.03
3960;BME280;1994;48.640;8.894;2023-09-12T07:21:01;95881.28;;;23.55;68.13
3960;BME280;1994;48.640;8.894;2023-09-12T07:23:27;95875.47;;;23.41;68.72
3960;BME280;1994;48.640;8.894;2023-09-12T07:25:54;95872.00;;;23.49;68.59
3960;BME280;1994;48.640;8.894;2023-09-12T07:28:30;95872.88;;;23.53;69.26
3960;BME280;1994;48.640;8.894;2023-09-12T07:30:56;95877.28;;;23.49;68.86
3960;BME280;1994;48.640;8.894;2023-09-12T07:33:22;95877.06;;;23.83;67.60
3960;BME280;1994;48.640;8.894;2023-09-12T07:35:51;95876.25;;;23.91;67.21
3960;BME280;1994;48.640;8.894;2023-09-12T07:38:18;95877.63;;;23.97;67.10
3960;BME280;1994;48.640;8.894;2023-09-12T07:40:43;95883.34;;;23.99;67.21
3960;BME280;1994;48.640;8.894;2023-09-12T07:43:09;95876.16;;;23.79;68.23
3960;BME280;1994;48.640;8.894;2023-09-12T07:45:36;95879.25;;;23.81;68.56
3960;BME280;1994;48.640;8.894;2023-09-12T07:48:10;95875.50;;;23.82;68.82
3960;BME280;1994;48.640;8.894;2023-09-12T07:50:39;95881.09;;;23.89;69.10
3960;BME280;1994;48.640;8.894;2023-09-12T07:53:05;95875.41;;;23.99;69.12
3960;BME280;1994;48.640;8.894;2023-09-12T07:55:31;95878.50;;;24.01;68.43
3960;BME280;1994;48.640;8.894;2023-09-12T07:58:02;95875.16;;;23.92;69.46
3960;BME280;1994;48.640;8.894;2023-09-12T08:00:28;95875.31;;;23.87;69.85
3960;BME280;1994;48.640;8.894;2023-09-12T08:02:54;95876.75;;;23.84;69.66
3960;BME280;1994;48.640;8.894;2023-09-12T08:05:20;95876.50;;;23.98;69.93
3960;BME280;1994;48.640;8.894;2023-09-12T08:07:46;95872.03;;;24.31;69.07
3960;BME280;1994;48.640;8.894;2023-09-12T08:10:12;95874.44;;;25.01;66.96
3960;BME280;1994;48.640;8.894;2023-09-12T08:12:37;95872.38;;;26.61;62.22
3960;BME280;1994;48.640;8.894;2023-09-12T08:15:08;95883.91;;;27.58;58.26
3960;BME280;1994;48.640;8.894;2023-09-12T08:17:34;95889.56;;;28.44;55.82
3960;BME280;1994;48.640;8.894;2023-09-12T08:20:00;95887.63;;;29.28;52.21
3960;BME280;1994;48.640;8.894;2023-09-12T08:22:26;95889.25;;;29.10;52.89
3960;BME280;1994;48.640;8.894;2023-09-12T08:24:51;95889.09;;;29.48;50.53
3960;BME280;1994;48.640;8.894;2023-09-12T08:27:17;95888.91;;;29.86;50.65
3960;BME280;1994;48.640;8.894;2023-09-12T08:29:43;95885.38;;;30.34;48.97
3960;BME280;1994;48.640;8.894;2023-09-12T08:32:10;95890.84;;;30.15;49.54
3960;BME280;1994;48.640;8.894;2023-09-12T08:34:36;95891.66;;;30.85;48.35
3960;BME280;1994;48.640;8.894;2023-09-12T08:37:02;95895.78;;;31.62;45.60
3960;BME280;1994;48.640;8.894;2023-09-12T08:39:42;95893.50;;;31.68;46.04
3960;BME280;1994;48.640;8.894;2023-09-12T08:42:15;95897.16;;;31.96;45.14
3960;BME280;1994;48.640;8.894;2023-09-12T08:44:42;95896.56;;;31.70;44.85
3960;BME280;1994;48.640;8.894;2023-09-12T08:47:11;95890.03;;;31.17;46.19
3960;BME280;1994;48.640;8.894;2023-09-12T08:49:37;95895.88;;;31.80;46.63
3960;BME280;1994;48.640;8.894;2023-09-12T08:52:06;95893.28;;;31.87;45.11
3960;BME280;1994;48.640;8.894;2023-09-12T08:54:33;95889.00;;;32.54;44.39
3960;BME280;1994;48.640;8.894;2023-09-12T08:57:03;95885.06;;;32.30;44.54
3960;BME280;1994;48.640;8.894;2023-09-12T08:59:32;95886.63;;;32.35;43.75
3960;BME280;1994;48.640;8.894;2023-09-12T09:02:00;95885.28;;;32.01;43.56
3960;BME280;1994;48.640;8.894;2023-09-12T09:04:29;95888.28;;;31.82;44.99
3960;BME280;1994;48.640;8.894;2023-09-12T09:06:58;95888.19;;;32.36;42.94
3960;BME280;1994;48.640;8.894;2023-09-12T09:09:25;95882.09;;;32.53;42.78
3960;BME280;1994;48.640;8.894;2023-09-12T09:11:51;95886.03;;;32.94;42.21
3960;BME280;1994;48.640;8.894;2023-09-12T09:14:17;95890.16;;;34.17;39.27
3960;BME280;1994;48.640;8.894;2023-09-12T09:16:43;95885.00;;;34.65;38.02
3960;BME280;1994;48.640;8.894;2023-09-12T09:19:08;95880.25;;;34.90;38.55
3960;BME280;1994;48.640;8.894;2023-09-12T09:21:38;95879.75;;;35.56;36.99
3960;BME280;1994;48.640;8.894;2023-09-12T09:24:12;95867.34;;;35.66;36.91
3960;BME280;1994;48.640;8.894;2023-09-12T09:26:51;95869.09;;;34.91;37.79
3960;BME280;1994;48.640;8.894;2023-09-12T09:29:24;95863.03;;;34.77;38.40
3960;BME280;1994;48.640;8.894;2023-09-12T09:31:51;95867.50;;;35.48;36.96
3960;BME280;1994;48.640;8.894;2023-09-12T09:34:20;95861.44;;;35.41;37.02
3960;BME280;1994;48.640;8.894;2023-09-12T09:36:54;95859.88;;;35.84;36.45
3960;BME280;1994;48.640;8.894;2023-09-12T09:39:25;95865.19;;;36.28;35.99
3960;BME280;1994;48.640;8.894;2023-09-12T09:41:56;95858.44;;;36.09;35.60
3960;BME280;1994;48.640;8.894;2023-09-12T09:44:24;95855.22;;;37.31;33.85
3960;BME280;1994;48.640;8.894;2023-09-12T09:46:59;95862.50;;;37.11;32.05
3960;BME280;1994;48.640;8.894;2023-09-12T09:49:31;95857.34;;;37.20;32.18
3960;BME280;1994;48.640;8.894;2023-09-12T09:51:59;95847.44;;;37.79;31.99
3960;BME280;1994;48.640;8.894;2023-09-12T09:54:28;95847.72;;;37.65;31.34
3960;BME280;1994;48.640;8.894;2023-09-12T09:56:57;95844.19;;;37.45;31.68
3960;BME280;1994;48.640;8.894;2023-09-12T09:59:25;95846.31;;;37.57;30.44
3960;BME280;1994;48.640;8.894;2023-09-12T10:01:57;95845.03;;;37.84;31.07
3960;BME280;1994;48.640;8.894;2023-09-12T10:04:24;95854.53;;;37.27;31.97
3960;BME280;1994;48.640;8.894;2023-09-12T10:06:55;95849.31;;;36.60;31.79
3960;BME280;1994;48.640;8.894;2023-09-12T10:09:26;95858.00;;;37.01;31.34
3960;BME280;1994;48.640;8.894;2023-09-12T10:11:52;95856.63;;;36.89;32.55
3960;BME280;1994;48.640;8.894;2023-09-12T10:14:20;95856.75;;;36.22;32.63
3960;BME280;1994;48.640;8.894;2023-09-12T10:16:49;95854.53;;;36.14;33.37
3960;BME280;1994;48.640;8.894;2023-09-12T10:19:29;95863.97;;;36.89;33.59
3960;BME280;1994;48.640;8.894;2023-09-12T10:22:17;95853.28;;;36.52;33.64
3960;BME280;1994;48.640;8.894;2023-09-12T10:24:46;95863.00;;;36.12;34.34
3960;BME280;1994;48.640;8.894;2023-09-12T10:27:12;95856.19;;;36.68;34.05
3960;BME280;1994;48.640;8.894;2023-09-12T10:29:39;95864.09;;;36.52;33.11
3960;BME280;1994;48.640;8.894;2023-09-12T10:32:05;95857.91;;;35.88;34.72
3960;BME280;1994;48.640;8.894;2023-09-12T10:34:32;95852.19;;;35.42;34.98
3960;BME280;1994;48.640;8.894;2023-09-12T10:36:59;95843.19;;;35.11;35.19
3960;BME280;1994;48.640;8.894;2023-09-12T10:39:27;95845.41;;;35.64;34.88
3960;BME280;1994;48.640;8.894;2023-09-12T10:41:54;95846.50;;;35.70;34.65
3960;BME280;1994;48.640;8.894;2023-09-12T10:44:21;95844.78;;;35.90;34.03
3960;BME280;1994;48.640;8.894;2023-09-12T10:46:47;95836.38;;;35.44;34.11
3960;BME280;1994;48.640;8.894;2023-09-12T10:49:15;95843.00;;;35.36;33.84
3960;BME280;1994;48.640;8.894;2023-09-12T10:51:46;95836.91;;;36.06;33.41
3960;BME280;1994;48.640;8.894;2023-09-12T10:54:40;95841.25;;;36.30;32.30
3960;BME280;1994;48.640;8.894;2023-09-12T10:57:10;95838.84;;;36.35;32.58
3960;BME280;1994;48.640;8.894;2023-09-12T11:02:33;95833.31;;;36.76;32.23
3960;BME280;1994;48.640;8.894;2023-09-12T11:05:04;95834.94;;;36.70;31.01
3960;BME280;1994;48.640;8.894;2023-09-12T11:10:29;95832.91;;;37.27;30.69
3960;BME280;1994;48.640;8.894;2023-09-12T11:12:58;95827.91;;;36.76;32.61
3960;BME280;1994;48.640;8.894;2023-09-12T11:15:28;95818.56;;;37.07;32.15
3960;BME280;1994;48.640;8.894;2023-09-12T11:18:05;95816.81;;;37.85;30.84
3960;BME280;1994;48.640;8.894;2023-09-12T11:20:59;95812.09;;;38.48;30.70
3960;BME280;1994;48.640;8.894;2023-09-12T11:23:26;95815.31;;;38.04;28.95
3960;BME280;1994;48.640;8.894;2023-09-12T11:26:08;95803.06;;;37.57;30.02
3960;BME280;1994;48.640;8.894;2023-09-12T11:28:36;95802.28;;;36.61;30.38
3960;BME280;1994;48.640;8.894;2023-09-12T11:31:02;95795.31;;;37.13;30.09
3960;BME280;1994;48.640;8.894;2023-09-12T11:33:28;95790.34;;;37.34;28.40
3960;BME280;1994;48.640;8.894;2023-09-12T11:35:55;95797.00;;;37.03;26.98
3960;BME280;1994;48.640;8.894;2023-09-12T11:38:30;95797.19;;;37.39;25.42
3960;BME280;1994;48.640;8.894;2023-09-12T11:40:58;95791.22;;;37.28;27.29
3960;BME280;1994;48.640;8.894;2023-09-12T11:43:26;95793.47;;;36.83;28.82
3960;BME280;1994;48.640;8.894;2023-09-12T11:45:57;95795.97;;;36.71;29.70
3960;BME280;1994;48.640;8.894;2023-09-12T11:48:23;95798.25;;;36.46;27.81
3960;BME280;1994;48.640;8.894;2023-09-12T11:50:56;95789.75;;;36.17;27.77
3960;BME280;1994;48.640;8.894;2023-09-12T11:53:25;95791.38;;;36.11;28.29
3960;BME280;1994;48.640;8.894;2023-09-12T11:55:55;95794.41;;;36.13;28.44
3960;BME280;1994;48.640;8.894;2023-09-12T11:58:26;95787.22;;;35.70;28.50
3960;BME280;1994;48.640;8.894;2023-09-12T12:00:57;95787.88;;;35.81;27.61
3960;BME280;1994;48.640;8.894;2023-09-12T12:03:26;95787.81;;;35.88;28.42
3960;BME280;1994;48.640;8.894;2023-09-12T12:05:53;95786.38;;;35.80;28.31
3960;BME280;1994;48.640;8.894;2023-09-12T12:08:20;95784.31;;;35.54;28.48
3960;BME280;1994;48.640;8.894;2023-09-12T12:10:57;95788.44;;;35.62;29.03
3960;BME280;1994;48.640;8.894;2023-09-12T12:13:26;95788.13;;;35.93;28.20
3960;BME280;1994;48.640;8.894;2023-09-12T12:15:53;95782.94;;;35.76;29.43
3960;BME280;1994;48.640;8.894;2023-09-12T12:18:19;95778.78;;;35.68;30.25
3960;BME280;1994;48.640;8.894;2023-09-12T12:20:45;95778.59;;;35.08;31.44
3960;BME280;1994;48.640;8.894;2023-09-12T12:23:11;95781.31;;;34.50;32.09
3960;BME280;1994;48.640;8.894;2023-09-12T12:25:37;95777.50;;;34.44;31.63
3960;BME280;1994;48.640;8.894;2023-09-12T12:28:03;95769.16;;;34.28;32.30
3960;BME280;1994;48.640;8.894;2023-09-12T12:30:34;95770.69;;;34.22;32.77
3960;BME280;1994;48.640;8.894;2023-09-12T12:33:06;95771.94;;;34.72;32.17
3960;BME280;1994;48.640;8.894;2023-09-12T12:35:32;95764.28;;;34.67;31.63
3960;BME280;1994;48.640;8.894;2023-09-12T12:37:58;95770.59;;;35.41;31.08
3960;BME280;1994;48.640;8.894;2023-09-12T12:40:24;95774.91;;;35.69;30.08
3960;BME280;1994;48.640;8.894;2023-09-12T12:42:51;95767.94;;;35.38;30.62
3960;BME280;1994;48.640;8.894;2023-09-12T12:45:22;95768.16;;;35.54;30.33
3960;BME280;1994;48.640;8.894;2023-09-12T12:48:08;95756.38;;;34.97;30.74
3960;BME280;1994;48.640;8.894;2023-09-12T12:50:36;95753.56;;;34.60;31.75
3960;BME280;1994;48.640;8.894;2023-09-12T12:53:02;95754.19;;;34.81;31.04
3960;BME280;1994;48.640;8.894;2023-09-12T12:55:30;95757.22;;;34.25;31.00
3960;BME280;1994;48.640;8.894;2023-09-12T12:58:00;95763.91;;;33.93;31.58
3960;BME280;1994;48.640;8.894;2023-09-12T13:00:29;95751.28;;;33.86;31.32
3960;BME280;1994;48.640;8.894;2023-09-12T13:02:54;95754.31;;;33.95;31.71
3960;BME280;1994;48.640;8.894;2023-09-12T13:05:29;95755.09;;;34.61;33.01
3960;BME280;1994;48.640;8.894;2023-09-12T13:07:56;95754.47;;;34.43;35.39
3960;BME280;1994;48.640;8.894;2023-09-12T13:10:22;95745.81;;;34.04;36.74
3960;BME280;1994;48.640;8.894;2023-09-12T13:12:49;95748.59;;;33.86;37.00
3960;BME280;1994;48.640;8.894;2023-09-12T13:15:16;95746.34;;;33.64;37.25
3960;BME280;1994;48.640;8.894;2023-09-12T13:17:44;95740.25;;;33.53;37.83
3960;BME280;1994;48.640;8.894;2023-09-12T13:20:10;95748.22;;;33.88;37.84
3960;BME280;1994;48.640;8.894;2023-09-12T13:22:37;95748.91;;;34.67;36.14
3960;BME280;1994;48.640;8.894;2023-09-12T13:25:04;95752.50;;;35.01;35.57
3960;BME280;1994;48.640;8.894;2023-09-12T13:27:30;95744.16;;;35.29;34.70
3960;BME280;1994;48.640;8.894;2023-09-12T13:29:59;95740.63;;;35.36;34.23
3960;BME280;1994;48.640;8.894;2023-09-12T13:32:24;95736.84;;;35.30;34.97
3960;BME280;1994;48.640;8.894;2023-09-12T13:34:52;95729.66;;;34.76;35.29
3960;BME280;1994;48.640;8.894;2023-09-12T13:37:18;95729.13;;;34.40;35.63